Time;durP1;ratioP1;P1;durP2;ratioP2;P2;SDS_P1;SDS_P2;PMS_P1;PMS_P2;Temp;Humidity;BMP_temperature;BMP_pressure;BME280_temperature;BME280_humidity;BME280_pressure;Samples;Min_cycle;Max_cycle;Signal;HPM_P1;HPM_P2
2022/06/01 00:01:51;;;;;;;80.15;50.90;;;18.30;59.00;;;;;;4916431;28;97384;-40
2022/06/01 00:04:18;;;;;;;80.18;51.08;;;18.30;59.10;;;;;;4906334;28;96508;-40
2022/06/01 00:06:44;;;;;;;80.68;51.05;;;18.30;59.10;;;;;;4905138;28;96503;-40
2022/06/01 00:09:10;;;;;;;80.50;50.88;;;18.30;58.90;;;;;;4897086;28;95971;-40
2022/06/01 00:11:36;;;;;;;80.43;50.95;;;18.30;59.10;;;;;;4906047;28;95807;-42
2022/06/01 00:14:02;;;;;;;80.25;50.95;;;18.30;59.20;;;;;;4920420;28;95916;-40
2022/06/01 00:16:28;;;;;;;80.50;50.72;;;18.30;59.20;;;;;;4910002;28;101007;-39
2022/06/01 00:18:54;;;;;;;80.65;51.05;;;18.30;59.10;;;;;;4906225;28;96696;-42
2022/06/01 00:21:20;;;;;;;80.40;51.08;;;18.30;58.80;;;;;;4913654;28;97598;-40
2022/06/01 00:23:45;;;;;;;80.25;51.13;;;18.20;59.20;;;;;;4908439;28;95560;-39
2022/06/01 00:26:11;;;;;;;79.82;50.80;;;18.20;59.20;;;;;;4898438;28;96968;-42
2022/06/01 00:28:37;;;;;;;79.88;50.85;;;18.20;59.50;;;;;;4914773;28;95850;-41
2022/06/01 00:31:03;;;;;;;80.55;51.15;;;18.20;59.40;;;;;;4910067;28;97077;-44
2022/06/01 00:33:29;;;;;;;79.85;50.90;;;18.20;59.30;;;;;;4891632;28;97442;-41
2022/06/01 00:35:55;;;;;;;79.60;50.63;;;18.10;59.20;;;;;;4902588;28;96768;-42
2022/06/01 00:38:22;;;;;;;79.90;50.85;;;18.10;59.00;;;;;;4912084;28;96169;-45
2022/06/01 00:40:48;;;;;;;79.57;50.83;;;18.10;59.00;;;;;;4903616;28;96401;-42
2022/06/01 00:43:45;;;;;;;79.30;50.65;;;18.10;59.50;;;;;;4898777;28;97967;-44
2022/06/01 00:46:12;;;;;;;79.22;50.63;;;18.10;59.60;;;;;;4909773;28;97071;-43
2022/06/01 00:48:46;;;;;;;79.47;50.83;;;18.10;59.50;;;;;;4909723;28;97471;-43
2022/06/01 00:51:14;;;;;;;79.88;50.85;;;18.10;59.50;;;;;;4901453;28;95516;-40
2022/06/01 00:53:44;;;;;;;79.50;50.78;;;18.10;59.90;;;;;;4915357;28;96320;-40
2022/06/01 00:56:18;;;;;;;81.28;51.25;;;18.10;59.60;;;;;;4904209;28;95338;-40
2022/06/01 00:58:48;;;;;;;79.63;50.97;;;18.00;59.30;;;;;;4912288;28;96367;-40
2022/06/01 01:01:18;;;;;;;79.57;50.92;;;18.00;59.30;;;;;;4912078;28;95128;-40
2022/06/01 01:03:47;;;;;;;80.05;50.97;;;18.00;60.00;;;;;;4904671;28;95904;-41
2022/06/01 01:06:17;;;;;;;79.90;50.60;;;18.00;59.80;;;;;;4910725;28;97096;-41
2022/06/01 01:08:44;;;;;;;79.05;50.67;;;18.00;59.40;;;;;;4915676;28;95803;-40
2022/06/01 01:11:12;;;;;;;79.05;50.63;;;18.00;59.90;;;;;;4894963;28;98012;-42
2022/06/01 01:13:48;;;;;;;79.82;50.97;;;17.90;59.70;;;;;;4914010;28;95848;-41
2022/06/01 01:16:16;;;;;;;79.03;50.63;;;17.90;59.70;;;;;;4916234;28;96054;-42
2022/06/01 01:18:45;;;;;;;79.60;51.00;;;18.00;59.60;;;;;;4909320;28;97116;-40
2022/06/01 01:21:19;;;;;;;79.18;50.60;;;17.90;60.00;;;;;;4917275;28;96622;-40
2022/06/01 01:23:59;;;;;;;80.03;50.90;;;17.90;59.90;;;;;;4914135;28;95126;-40
2022/06/01 01:26:26;;;;;;;79.50;50.70;;;17.90;59.50;;;;;;4903312;28;95645;-44
2022/06/01 01:28:52;;;;;;;79.72;50.50;;;17.90;59.60;;;;;;4904297;28;98564;-40
2022/06/01 01:31:21;;;;;;;79.78;50.80;;;17.90;60.00;;;;;;4909453;28;97534;-42
2022/06/01 01:33:49;;;;;;;79.15;50.83;;;17.90;59.80;;;;;;4913046;28;95790;-43
2022/06/01 01:36:17;;;;;;;79.13;50.78;;;17.90;59.70;;;;;;4905457;28;97320;-39
2022/06/01 01:38:49;;;;;;;79.30;50.53;;;17.90;59.80;;;;;;4912996;28;96660;-39
2022/06/01 01:41:19;;;;;;;78.35;50.40;;;17.80;59.60;;;;;;4908009;28;96179;-41
2022/06/01 01:44:25;;;;;;;79.35;50.42;;;17.80;59.90;;;;;;4903752;28;95696;-41
2022/06/01 01:46:52;;;;;;;79.03;50.50;;;17.80;60.00;;;;;;4903626;28;94813;-40
2022/06/01 01:49:21;;;;;;;78.88;50.47;;;17.80;59.70;;;;;;4905594;28;95194;-39
2022/06/01 01:51:53;;;;;;;79.45;50.78;;;17.80;60.00;;;;;;4912399;28;95591;-39
2022/06/01 01:54:36;;;;;;;79.10;50.78;;;17.80;60.10;;;;;;4904613;28;94834;-42
2022/06/01 01:57:32;;;;;;;81.20;50.75;;;17.80;60.10;;;;;;4899097;28;97069;-41
2022/06/01 01:59:58;;;;;;;79.22;50.53;;;17.80;59.80;;;;;;4909905;28;96503;-40
2022/06/01 02:02:44;;;;;;;80.28;50.45;;;17.70;59.70;;;;;;4900944;28;99559;-41
2022/06/01 02:08:23;;;;;;;78.80;50.55;;;17.70;60.30;;;;;;4919387;28;95685;-42
2022/06/01 02:13:34;;;;;;;79.47;50.45;;;17.70;60.40;;;;;;4909218;28;95048;-44
2022/06/01 02:16:01;;;;;;;78.32;50.47;;;17.60;60.20;;;;;;4891106;28;96287;-40
2022/06/01 02:18:35;;;;;;;78.85;50.75;;;17.70;60.30;;;;;;4902501;28;96312;-43
2022/06/01 02:21:12;;;;;;;79.13;50.70;;;17.70;60.00;;;;;;4917742;28;96105;-40
2022/06/01 02:23:39;;;;;;;78.97;50.47;;;17.60;60.10;;;;;;4913809;28;96681;-40
2022/06/01 02:26:05;;;;;;;78.35;50.42;;;17.60;59.90;;;;;;4906250;28;100755;-40
2022/06/01 02:28:32;;;;;;;78.38;50.55;;;17.60;60.30;;;;;;4904247;28;97055;-40
2022/06/01 02:31:00;;;;;;;79.22;50.65;;;17.60;60.50;;;;;;4908853;28;96098;-45
2022/06/01 02:33:32;;;;;;;79.30;50.78;;;17.60;60.30;;;;;;4906167;28;95907;-41
2022/06/01 02:36:00;;;;;;;78.85;50.58;;;17.60;60.00;;;;;;4914148;28;96935;-41
2022/06/01 02:38:42;;;;;;;79.15;50.55;;;17.60;60.40;;;;;;4917560;28;95454;-44
2022/06/01 02:42:25;;;;;;;;;;;17.60;60.30;;;;;;4907621;28;99140;-40
2022/06/01 02:43:53;;;;;;;78.10;50.30;;;17.50;60.10;;;;;;4917363;28;95424;-42
2022/06/01 02:46:19;;;;;;;78.85;50.33;;;17.50;60.00;;;;;;4904209;28;94700;-40
2022/06/01 02:48:45;;;;;;;78.25;50.35;;;17.50;60.40;;;;;;4906093;28;96462;-44
2022/06/01 02:51:12;;;;;;;78.35;50.42;;;17.50;60.40;;;;;;4905573;28;95393;-41
2022/06/01 02:53:38;;;;;;;79.10;50.65;;;17.50;60.50;;;;;;4909527;28;96677;-42
2022/06/01 02:56:05;;;;;;;78.30;50.40;;;17.50;60.90;;;;;;4903463;28;97218;-40
2022/06/01 02:58:30;;;;;;;79.43;50.65;;;17.50;60.60;;;;;;4902054;28;95526;-41
2022/06/01 03:00:58;;;;;;;78.18;50.45;;;17.50;60.20;;;;;;4910588;28;96183;-40
2022/06/01 03:03:25;;;;;;;78.57;50.35;;;17.40;60.50;;;;;;4903942;28;95496;-40
2022/06/01 03:05:50;;;;;;;79.72;50.38;;;17.40;60.60;;;;;;4913389;28;97550;-40
2022/06/01 03:08:16;;;;;;;78.88;50.45;;;17.40;60.30;;;;;;4908008;28;97669;-42
2022/06/01 03:10:44;;;;;;;78.93;50.30;;;17.40;60.80;;;;;;4896190;28;101508;-41
2022/06/01 03:13:10;;;;;;;78.28;50.40;;;17.40;60.60;;;;;;4910819;28;96005;-42
2022/06/01 03:15:36;;;;;;;78.88;50.65;;;17.30;60.50;;;;;;4919935;28;95461;-39
2022/06/01 03:18:02;;;;;;;78.50;50.40;;;17.40;60.50;;;;;;4912012;28;98659;-40
2022/06/01 03:20:28;;;;;;;79.05;50.65;;;17.30;60.40;;;;;;4906602;28;97042;-42
2022/06/01 03:22:54;;;;;;;79.28;50.42;;;17.30;60.40;;;;;;4903351;28;95213;-41
2022/06/01 03:25:22;;;;;;;78.82;50.50;;;17.40;60.90;;;;;;4911224;28;96539;-41
2022/06/01 03:27:50;;;;;;;78.85;50.70;;;17.30;60.60;;;;;;4901403;28;97026;-40
2022/06/01 03:30:17;;;;;;;78.80;50.50;;;17.40;60.30;;;;;;4908768;28;98806;-41
2022/06/01 03:32:44;;;;;;;78.10;50.28;;;17.40;60.80;;;;;;4895164;28;97629;-40
2022/06/01 03:35:11;;;;;;;78.28;50.20;;;17.30;60.30;;;;;;4906964;28;95778;-41
2022/06/01 03:37:37;;;;;;;77.82;50.30;;;17.30;60.50;;;;;;4903328;28;95538;-41
2022/06/01 03:40:05;;;;;;;78.20;50.35;;;17.30;61.00;;;;;;4901806;28;97170;-42
2022/06/01 03:42:31;;;;;;;78.38;50.53;;;17.20;60.70;;;;;;4897319;28;96592;-43
2022/06/01 03:47:42;;;;;;;77.85;50.22;;;17.30;60.60;;;;;;4900906;28;96945;-43
2022/06/01 03:50:08;;;;;;;77.97;50.22;;;17.20;60.60;;;;;;4907785;28;101234;-41
2022/06/01 03:52:34;;;;;;;78.53;50.47;;;17.20;60.60;;;;;;4910965;28;95401;-42
2022/06/01 03:55:00;;;;;;;78.18;50.40;;;17.20;61.20;;;;;;4903627;28;97143;-41
2022/06/01 03:57:26;;;;;;;79.10;50.65;;;17.20;61.00;;;;;;4906328;28;96659;-41
2022/06/01 03:59:52;;;;;;;77.47;50.33;;;17.30;60.30;;;;;;4911506;28;96514;-43
2022/06/01 04:02:18;;;;;;;77.93;50.25;;;17.20;60.80;;;;;;4896248;28;97001;-41
2022/06/01 04:04:44;;;;;;;78.45;50.35;;;17.20;60.50;;;;;;4901482;28;96476;-42
2022/06/01 04:07:09;;;;;;;78.55;50.58;;;17.20;60.40;;;;;;4902053;28;97596;-43
2022/06/01 04:09:35;;;;;;;78.22;50.45;;;17.10;60.60;;;;;;4885760;28;99006;-43
2022/06/01 04:12:01;;;;;;;77.60;50.08;;;17.20;60.70;;;;;;4901175;28;101993;-42
2022/06/01 04:14:27;;;;;;;78.10;50.55;;;17.10;60.80;;;;;;4918073;28;95808;-44
2022/06/01 04:16:53;;;;;;;78.90;50.42;;;17.10;60.50;;;;;;4900185;28;96994;-42
2022/06/01 04:19:18;;;;;;;77.90;50.35;;;17.20;60.50;;;;;;4882504;28;96806;-42
2022/06/01 04:21:49;;;;;;;78.72;50.75;;;17.20;60.00;;;;;;4903976;28;95366;-42
2022/06/01 04:24:19;;;;;;;77.83;50.47;;;17.20;60.60;;;;;;4914374;28;95630;-40
2022/06/01 04:26:45;;;;;;;77.82;50.30;;;17.20;60.90;;;;;;4913667;28;95324;-44
2022/06/01 04:29:11;;;;;;;78.57;50.33;;;17.20;60.70;;;;;;4907587;28;95790;-40
2022/06/01 04:31:37;;;;;;;78.70;50.40;;;17.30;60.50;;;;;;4909551;28;96993;-41
2022/06/01 04:34:04;;;;;;;79.72;50.70;;;17.30;60.20;;;;;;4905503;28;95123;-43
2022/06/01 04:36:30;;;;;;;78.00;50.50;;;17.30;60.20;;;;;;4903860;28;95823;-45
2022/06/01 04:38:56;;;;;;;78.65;50.55;;;17.30;60.20;;;;;;4913213;28;96163;-43
2022/06/01 04:41:21;;;;;;;78.30;50.28;;;17.30;60.60;;;;;;4914772;28;97385;-44
2022/06/01 04:43:47;;;;;;;78.10;50.47;;;17.30;60.00;;;;;;4890656;28;96383;-42
2022/06/01 04:46:13;;;;;;;78.03;50.55;;;17.30;60.00;;;;;;4908780;28;96504;-44
2022/06/01 04:48:38;;;;;;;77.25;50.15;;;17.30;60.40;;;;;;4909864;28;94888;-43
2022/06/01 04:51:05;;;;;;;79.07;50.63;;;17.30;60.50;;;;;;4912916;28;95186;-40
2022/06/01 04:53:31;;;;;;;77.80;50.35;;;17.30;59.80;;;;;;4912594;28;95748;-40
2022/06/01 04:55:57;;;;;;;80.15;50.55;;;17.30;60.50;;;;;;4914900;28;98672;-42
2022/06/01 04:58:22;;;;;;;78.38;50.47;;;17.40;60.50;;;;;;4906528;28;96637;-43
2022/06/01 05:00:49;;;;;;;78.65;50.50;;;17.40;60.30;;;;;;4899879;28;96251;-43
2022/06/01 05:03:15;;;;;;;78.07;50.40;;;17.50;60.40;;;;;;4908688;28;95420;-42
2022/06/01 05:05:41;;;;;;;77.78;50.05;;;17.50;60.90;;;;;;4907399;28;101825;-44
2022/06/01 05:08:09;;;;;;;78.93;50.53;;;17.50;60.70;;;;;;4910431;28;98859;-42
2022/06/01 05:10:35;;;;;;;78.63;50.42;;;17.60;60.00;;;;;;4903428;28;97173;-40
2022/06/01 05:13:01;;;;;;;78.80;50.78;;;17.60;60.00;;;;;;4905814;28;99660;-45
2022/06/01 05:15:27;;;;;;;79.30;50.75;;;17.60;59.80;;;;;;4913384;28;95383;-45
2022/06/01 05:17:53;;;;;;;81.40;51.22;;;17.60;60.00;;;;;;4909578;28;95860;-46
2022/06/01 05:20:19;;;;;;;79.85;51.05;;;17.60;59.70;;;;;;4904921;28;96604;-42
2022/06/01 05:22:45;;;;;;;79.65;51.03;;;17.60;59.80;;;;;;4912207;28;95003;-39
2022/06/01 05:25:10;;;;;;;81.80;51.15;;;17.70;59.30;;;;;;4916731;28;95761;-40
2022/06/01 05:27:37;;;;;;;79.80;50.78;;;17.60;59.30;;;;;;4897349;28;101678;-42
2022/06/01 05:30:06;;;;;;;80.47;51.20;;;17.60;59.80;;;;;;4916568;28;101036;-41
2022/06/01 05:32:31;;;;;;;80.38;51.25;;;17.60;59.30;;;;;;4913539;28;95760;-41
2022/06/01 05:34:58;;;;;;;79.68;51.38;;;17.70;59.40;;;;;;4912663;28;95824;-41
2022/06/01 05:37:24;;;;;;;79.75;51.05;;;17.60;58.90;;;;;;4903997;28;96519;-41
2022/06/01 05:39:49;;;;;;;81.47;51.30;;;17.60;58.90;;;;;;4903035;28;102934;-41
2022/06/01 05:42:16;;;;;;;80.63;51.30;;;17.70;58.60;;;;;;4896370;28;95420;-40
2022/06/01 05:44:41;;;;;;;80.82;51.05;;;17.60;59.00;;;;;;4899668;28;96268;-42
2022/06/01 05:47:07;;;;;;;84.30;51.67;;;17.60;59.20;;;;;;4911334;28;95488;-44
2022/06/01 05:49:33;;;;;;;83.82;51.85;;;17.70;59.80;;;;;;4914796;28;100318;-44
2022/06/01 05:51:59;;;;;;;83.15;51.72;;;17.80;60.60;;;;;;4911780;28;95933;-42
2022/06/01 05:54:24;;;;;;;84.22;51.85;;;17.80;60.70;;;;;;4907009;28;95990;-41
2022/06/01 05:56:50;;;;;;;85.10;51.97;;;17.90;60.30;;;;;;4909606;28;96819;-44
2022/06/01 05:59:16;;;;;;;84.60;52.03;;;17.90;59.40;;;;;;4900197;28;99511;-45
2022/06/01 06:01:42;;;;;;;84.10;52.03;;;18.00;60.00;;;;;;4895452;28;95143;-42
2022/06/01 06:04:08;;;;;;;84.63;52.03;;;18.00;59.00;;;;;;4911132;28;95770;-41
2022/06/01 06:06:34;;;;;;;85.28;52.40;;;18.00;58.80;;;;;;4921182;28;95834;-42
2022/06/01 06:09:06;;;;;;;84.32;51.72;;;17.90;58.20;;;;;;4906302;28;96196;-43
2022/06/01 06:11:36;;;;;;;82.50;51.85;;;17.90;58.80;;;;;;4919538;28;96443;-41
2022/06/01 06:14:02;;;;;;;83.30;51.85;;;18.00;58.70;;;;;;4924521;28;95150;-43
2022/06/01 06:16:31;;;;;;;82.68;51.75;;;18.00;58.70;;;;;;4915253;28;96191;-42
2022/06/01 06:18:57;;;;;;;84.38;52.20;;;18.00;58.30;;;;;;4905895;28;96578;-41
2022/06/01 06:21:28;;;;;;;83.05;51.92;;;18.00;58.20;;;;;;4903089;28;95046;-43
2022/06/01 06:24:05;;;;;;;84.50;52.03;;;18.10;58.30;;;;;;4907857;28;97934;-43
2022/06/01 06:26:31;;;;;;;85.68;52.25;;;18.10;58.00;;;;;;4905285;28;96112;-41
2022/06/01 06:29:00;;;;;;;83.72;52.00;;;18.10;58.00;;;;;;4901425;28;95329;-41
2022/06/01 06:31:25;;;;;;;84.15;51.92;;;18.10;58.10;;;;;;4891475;28;98480;-45
2022/06/01 06:33:51;;;;;;;83.32;52.05;;;18.20;58.00;;;;;;4903032;28;97644;-41
2022/06/01 06:36:17;;;;;;;84.22;52.08;;;18.20;57.80;;;;;;4908522;28;96982;-43
2022/06/01 06:38:42;;;;;;;84.10;52.03;;;18.30;58.00;;;;;;4905443;28;96517;-43
2022/06/01 06:41:10;;;;;;;85.22;52.33;;;18.30;57.60;;;;;;4902883;28;99059;-41
2022/06/01 06:43:36;;;;;;;84.38;52.05;;;18.30;57.20;;;;;;4909853;28;96279;-41
2022/06/01 06:46:09;;;;;;;85.15;52.38;;;18.30;57.40;;;;;;4913503;28;95124;-44
2022/06/01 06:48:35;;;;;;;83.75;51.92;;;18.30;58.10;;;;;;4895474;28;96008;-42
2022/06/01 06:51:01;;;;;;;83.97;52.30;;;18.40;56.80;;;;;;4911518;28;97533;-40
2022/06/01 06:53:28;;;;;;;83.78;52.25;;;18.40;56.80;;;;;;4918021;28;95853;-45
2022/06/01 06:55:53;;;;;;;87.35;52.80;;;18.40;57.00;;;;;;4894224;28;96225;-43
2022/06/01 06:58:19;;;;;;;83.70;52.17;;;18.50;57.30;;;;;;4902852;28;98009;-42
2022/06/01 07:00:45;;;;;;;87.40;52.65;;;18.50;57.60;;;;;;4914014;28;99837;-44
2022/06/01 07:03:11;;;;;;;85.28;52.55;;;18.60;57.60;;;;;;4927723;28;96740;-45
2022/06/01 07:08:21;;;;;;;85.00;52.45;;;18.70;57.20;;;;;;4910195;28;99096;-46
2022/06/01 07:10:47;;;;;;;85.53;52.47;;;18.80;57.30;;;;;;4903528;28;97351;-40
2022/06/01 07:13:13;;;;;;;85.20;52.63;;;18.80;57.10;;;;;;4917539;28;94915;-43
2022/06/01 07:15:38;;;;;;;86.65;52.72;;;18.90;56.70;;;;;;4924142;28;96618;-42
2022/06/01 07:18:05;;;;;;;85.07;52.50;;;18.90;56.70;;;;;;4919278;28;97636;-43
2022/06/01 07:20:32;;;;;;;85.13;52.65;;;19.00;56.40;;;;;;4903889;28;97044;-42
2022/06/01 07:22:58;;;;;;;85.47;52.47;;;19.00;56.30;;;;;;4897741;28;98165;-41
2022/06/01 07:25:25;;;;;;;86.22;52.85;;;19.10;56.20;;;;;;4900179;28;96259;-41
2022/06/01 07:27:51;;;;;;;85.95;52.80;;;19.10;55.90;;;;;;4912923;28;96702;-42
2022/06/01 07:30:17;;;;;;;86.50;52.70;;;19.20;55.90;;;;;;4907301;28;98060;-43
2022/06/01 07:32:44;;;;;;;92.32;53.78;;;19.20;56.40;;;;;;4872884;28;96763;-43
2022/06/01 07:35:10;;;;;;;92.05;53.70;;;19.30;57.50;;;;;;4908480;28;97373;-39
2022/06/01 07:43:06;;;;;;;90.20;53.85;;;19.50;58.30;;;;;;4914076;28;97570;-40
2022/06/01 07:45:36;;;;;;;102.47;54.50;;;19.60;58.90;;;;;;4909253;28;99307;-41
2022/06/01 07:48:04;;;;;;;99.53;55.08;;;19.70;59.20;;;;;;4910780;28;96447;-37
2022/06/01 07:50:30;;;;;;;99.10;54.80;;;19.90;59.20;;;;;;4904318;28;95783;-37
2022/06/01 07:52:56;;;;;;;101.13;54.63;;;20.00;59.10;;;;;;4907334;28;95539;-42
2022/06/01 07:55:22;;;;;;;97.68;54.60;;;20.10;58.60;;;;;;4914238;28;95648;-38
2022/06/01 07:57:47;;;;;;;97.35;54.40;;;20.10;58.70;;;;;;4898548;28;97087;-40
2022/06/01 08:00:14;;;;;;;98.22;54.75;;;20.20;58.90;;;;;;4907714;28;97294;-39
2022/06/01 08:02:39;;;;;;;99.75;54.78;;;20.20;58.60;;;;;;4907328;28;95847;-39
2022/06/01 08:05:07;;;;;;;95.72;54.15;;;20.30;58.50;;;;;;4916174;28;94346;-41
2022/06/01 08:07:33;;;;;;;96.50;54.47;;;20.40;57.50;;;;;;4919686;28;95145;-38
2022/06/01 08:09:59;;;;;;;100.78;55.65;;;20.40;58.00;;;;;;4912740;28;97348;-38
2022/06/01 08:15:11;;;;;;;99.30;55.17;;;20.50;57.80;;;;;;4913386;28;96090;-37
2022/06/01 08:17:36;;;;;;;96.40;54.95;;;20.60;57.60;;;;;;4908309;28;98001;-37
2022/06/01 08:20:03;;;;;;;96.50;54.80;;;20.70;57.30;;;;;;4901250;28;95835;-39
2022/06/01 08:22:28;;;;;;;98.10;54.85;;;20.70;57.50;;;;;;4910623;28;96623;-40
2022/06/01 08:24:54;;;;;;;98.07;54.75;;;20.70;56.90;;;;;;4908869;28;99555;-39
2022/06/01 08:27:20;;;;;;;101.55;55.05;;;20.70;56.30;;;;;;4914548;28;95513;-40
2022/06/01 08:29:46;;;;;;;101.00;55.45;;;20.80;56.50;;;;;;4918712;28;94729;-38
2022/06/01 08:32:12;;;;;;;98.28;55.25;;;20.80;57.30;;;;;;4914663;28;95518;-43
2022/06/01 08:34:38;;;;;;;101.15;54.97;;;20.80;56.70;;;;;;4917652;28;95600;-40
2022/06/01 08:37:05;;;;;;;105.03;55.38;;;20.80;56.40;;;;;;4906513;28;98592;-39
2022/06/01 08:39:31;;;;;;;102.40;56.47;;;20.90;56.00;;;;;;4928249;28;96141;-39
2022/06/01 08:42:00;;;;;;;100.43;56.08;;;21.00;56.70;;;;;;4918743;28;96572;-40
2022/06/01 08:44:34;;;;;;;110.20;56.35;;;21.00;55.90;;;;;;4920813;28;95207;-39
2022/06/01 08:47:10;;;;;;;104.15;56.58;;;21.10;55.90;;;;;;4901554;28;95192;-37
2022/06/01 08:49:38;;;;;;;104.03;56.03;;;21.10;55.80;;;;;;4905707;28;96905;-40
2022/06/01 08:52:04;;;;;;;97.10;55.22;;;21.20;55.50;;;;;;4898954;28;96014;-37
2022/06/01 08:54:30;;;;;;;105.45;56.10;;;21.20;54.90;;;;;;4906636;28;95764;-39
2022/06/01 08:57:01;;;;;;;106.80;55.80;;;21.30;55.90;;;;;;4916808;28;97098;-42
2022/06/01 08:59:58;;;;;;;101.00;55.63;;;21.40;55.40;;;;;;4902795;28;96475;-38
2022/06/01 09:02:39;;;;;;;100.55;56.08;;;21.50;55.20;;;;;;4911367;28;99453;-40
2022/06/01 09:05:11;;;;;;;98.07;55.53;;;21.60;54.50;;;;;;4906074;28;97109;-40
2022/06/01 09:08:18;;;;;;;97.43;55.40;;;21.60;54.40;;;;;;4907566;28;95844;-39
2022/06/01 09:11:05;;;;;;;105.78;55.78;;;21.70;54.00;;;;;;4919266;28;96427;-38
2022/06/01 09:13:49;;;;;;;100.50;55.45;;;21.70;54.70;;;;;;4940216;28;78872;-38
2022/06/01 09:16:19;;;;;;;99.80;55.47;;;21.70;54.50;;;;;;4942384;28;81162;-38
2022/06/01 09:18:48;;;;;;;102.80;55.47;;;21.70;54.60;;;;;;4930307;28;82755;-38
2022/06/01 09:24:11;;;;;;;100.68;55.33;;;21.80;54.00;;;;;;4933538;28;79675;-37
2022/06/01 09:26:49;;;;;;;99.85;55.20;;;21.80;53.70;;;;;;4925945;28;80093;-39
2022/06/01 09:29:21;;;;;;;96.72;55.28;;;21.90;53.50;;;;;;4928076;28;82948;-39
2022/06/01 09:31:49;;;;;;;95.72;55.05;;;21.90;53.90;;;;;;4941697;28;82321;-40
2022/06/01 09:34:38;;;;;;;99.90;55.30;;;21.90;53.90;;;;;;4928822;28;82907;-39
2022/06/01 09:37:17;;;;;;;97.70;55.38;;;21.90;53.30;;;;;;4930269;28;84577;-40
2022/06/01 09:39:53;;;;;;;100.57;55.72;;;22.00;53.50;;;;;;4928685;28;82712;-42
2022/06/01 09:42:34;;;;;;;98.68;55.03;;;22.00;53.30;;;;;;4922120;28;82024;-38
2022/06/01 09:45:03;;;;;;;97.50;54.78;;;22.00;53.40;;;;;;4942792;28;79217;-39
2022/06/01 09:47:42;;;;;;;98.25;55.03;;;22.00;52.70;;;;;;4929744;28;82056;-39
2022/06/01 09:50:20;;;;;;;96.22;55.28;;;21.90;52.90;;;;;;4926783;28;81643;-42
2022/06/01 09:52:46;;;;;;;101.45;55.35;;;21.90;53.30;;;;;;4931293;28;82071;-40
2022/06/01 09:55:22;;;;;;;96.55;55.13;;;21.90;53.40;;;;;;4929466;28;81508;-40
2022/06/01 09:58:03;;;;;;;97.10;54.80;;;22.00;53.50;;;;;;4924646;28;83464;-39
2022/06/01 10:06:19;;;;;;;96.55;54.45;;;21.90;51.70;;;;;;4933057;28;80486;-40
2022/06/01 10:08:55;;;;;;;107.05;55.58;;;22.00;52.70;;;;;;4931416;28;78902;-39
